sensor_id;sensor_type;location;lat;lon;timestamp;pressure;altitude;pressure_sealevel;temperature;humidity
69737;BME280;64476;55.004;73.342;2023-03-20T00:02:35;102592.22;;;-11.59;38.79
69737;BME280;64476;55.004;73.342;2023-03-20T00:05:39;102607.75;;;-11.43;38.43
69737;BME280;64476;55.004;73.342;2023-03-20T00:08:40;102630.09;;;-11.25;38.71
69737;BME280;64476;55.004;73.342;2023-03-20T00:11:50;102630.84;;;-11.30;38.63
69737;BME280;64476;55.004;73.342;2023-03-20T00:14:53;102633.50;;;-11.23;38.53
69737;BME280;64476;55.004;73.342;2023-03-20T00:17:56;102491.56;;;-12.04;38.89
69737;BME280;64476;55.004;73.342;2023-03-20T00:20:57;102593.47;;;-11.38;38.61
69737;BME280;64476;55.004;73.342;2023-03-20T00:23:59;102627.78;;;-11.13;38.46
69737;BME280;64476;55.004;73.342;2023-03-20T00:27:00;102579.19;;;-11.33;38.28
69737;BME280;64476;55.004;73.342;2023-03-20T00:33:21;102627.09;;;-11.05;38.63
69737;BME280;64476;55.004;73.342;2023-03-20T00:36:23;102567.25;;;-11.37;38.32
69737;BME280;64476;55.004;73.342;2023-03-20T00:39:25;102620.34;;;-11.04;38.84
69737;BME280;64476;55.004;73.342;2023-03-20T00:42:33;102631.44;;;-10.99;38.68
69737;BME280;64476;55.004;73.342;2023-03-20T00:45:36;102617.00;;;-11.01;38.58
69737;BME280;64476;55.004;73.342;2023-03-20T00:48:39;102605.09;;;-11.04;38.68
69737;BME280;64476;55.004;73.342;2023-03-20T00:51:52;102518.84;;;-11.49;38.82
69737;BME280;64476;55.004;73.342;2023-03-20T00:55:04;102609.50;;;-10.95;38.87
69737;BME280;64476;55.004;73.342;2023-03-20T00:58:14;102611.28;;;-10.91;39.18
69737;BME280;64476;55.004;73.342;2023-03-20T01:01:16;102623.25;;;-10.83;38.81
69737;BME280;64476;55.004;73.342;2023-03-20T01:04:38;102598.50;;;-10.94;38.60
69737;BME280;64476;55.004;73.342;2023-03-20T01:07:42;102627.63;;;-10.75;38.83
69737;BME280;64476;55.004;73.342;2023-03-20T01:10:57;102596.91;;;-10.89;38.53
69737;BME280;64476;55.004;73.342;2023-03-20T01:13:59;102578.22;;;-10.93;38.66
69737;BME280;64476;55.004;73.342;2023-03-20T01:17:00;102575.78;;;-10.85;38.36
69737;BME280;64476;55.004;73.342;2023-03-20T01:23:31;102560.53;;;-10.88;38.33
69737;BME280;64476;55.004;73.342;2023-03-20T01:26:41;102617.78;;;-10.56;38.41
69737;BME280;64476;55.004;73.342;2023-03-20T01:29:48;102598.09;;;-10.67;38.59
69737;BME280;64476;55.004;73.342;2023-03-20T01:32:50;102621.09;;;-10.60;38.73
69737;BME280;64476;55.004;73.342;2023-03-20T01:36:28;102616.84;;;-10.62;39.15
69737;BME280;64476;55.004;73.342;2023-03-20T01:39:44;102488.66;;;-11.34;38.68
69737;BME280;64476;55.004;73.342;2023-03-20T01:42:52;102608.38;;;-10.61;38.91
69737;BME280;64476;55.004;73.342;2023-03-20T01:46:17;102616.06;;;-10.57;38.57
69737;BME280;64476;55.004;73.342;2023-03-20T01:53:46;102609.34;;;-10.54;38.80
69737;BME280;64476;55.004;73.342;2023-03-20T01:57:43;102574.44;;;-10.66;38.71
69737;BME280;64476;55.004;73.342;2023-03-20T02:05:01;102598.50;;;-10.43;38.48
69737;BME280;64476;55.004;73.342;2023-03-20T02:16:10;102631.69;;;-10.34;38.55
69737;BME280;64476;55.004;73.342;2023-03-20T03:24:56;102539.91;;;-9.11;37.90
69737;BME280;64476;55.004;73.342;2023-03-20T03:28:25;102579.19;;;-8.86;37.80
69737;BME280;64476;55.004;73.342;2023-03-20T03:40:33;102593.03;;;-8.54;38.03
69737;BME280;64476;55.004;73.342;2023-03-20T03:43:44;102581.97;;;-8.56;38.06
69737;BME280;64476;55.004;73.342;2023-03-20T03:46:53;102615.31;;;-8.27;37.96
69737;BME280;64476;55.004;73.342;2023-03-20T03:54:23;102496.00;;;-8.77;37.87
69737;BME280;64476;55.004;73.342;2023-03-20T04:06:41;102560.19;;;-8.02;37.76
69737;BME280;64476;55.004;73.342;2023-03-20T04:13:56;102564.59;;;-7.78;37.88
69737;BME280;64476;55.004;73.342;2023-03-20T04:21:24;102578.31;;;-7.49;37.35
69737;BME280;64476;55.004;73.342;2023-03-20T04:24:26;102550.19;;;-7.56;37.14
69737;BME280;64476;55.004;73.342;2023-03-20T04:27:28;102544.25;;;-7.49;37.46
69737;BME280;64476;55.004;73.342;2023-03-20T04:30:37;102555.34;;;-7.41;37.49
69737;BME280;64476;55.004;73.342;2023-03-20T04:34:28;102521.25;;;-7.51;37.44
69737;BME280;64476;55.004;73.342;2023-03-20T04:38:03;102543.44;;;-7.30;37.25
69737;BME280;64476;55.004;73.342;2023-03-20T04:45:40;102522.16;;;-7.29;36.75
69737;BME280;64476;55.004;73.342;2023-03-20T04:57:07;102485.53;;;-7.26;36.94
69737;BME280;64476;55.004;73.342;2023-03-20T05:00:10;102413.13;;;-7.57;36.96
69737;BME280;64476;55.004;73.342;2023-03-20T05:03:45;102530.69;;;-6.65;36.76
69737;BME280;64476;55.004;73.342;2023-03-20T05:07:19;102549.44;;;-6.42;36.79
69737;BME280;64476;55.004;73.342;2023-03-20T05:15:07;102539.13;;;-6.18;36.26
69737;BME280;64476;55.004;73.342;2023-03-20T05:19:08;102430.97;;;-6.70;36.02
69737;BME280;64476;55.004;73.342;2023-03-20T05:26:50;102519.38;;;-5.83;35.32
69737;BME280;64476;55.004;73.342;2023-03-20T05:34:04;102472.44;;;-5.84;34.96
69737;BME280;64476;55.004;73.342;2023-03-20T05:42:02;102501.34;;;-5.63;34.60
69737;BME280;64476;55.004;73.342;2023-03-20T05:49:19;102483.25;;;-5.40;34.77
69737;BME280;64476;55.004;73.342;2023-03-20T05:53:21;102451.63;;;-5.33;34.67
69737;BME280;64476;55.004;73.342;2023-03-20T05:56:59;102479.59;;;-5.03;33.93
69737;BME280;64476;55.004;73.342;2023-03-20T06:08:56;102421.88;;;-4.60;33.80
69737;BME280;64476;55.004;73.342;2023-03-20T06:16:11;102455.53;;;-4.12;33.04
69737;BME280;64476;55.004;73.342;2023-03-20T06:19:13;102483.34;;;-3.77;33.02
69737;BME280;64476;55.004;73.342;2023-03-20T06:22:21;102487.38;;;-3.59;33.27
69737;BME280;64476;55.004;73.342;2023-03-20T06:25:23;102446.47;;;-3.73;32.79
69737;BME280;64476;55.004;73.342;2023-03-20T06:28:35;102425.81;;;-3.67;32.05
69737;BME280;64476;55.004;73.342;2023-03-20T06:31:45;102489.44;;;-3.27;32.75
69737;BME280;64476;55.004;73.342;2023-03-20T06:35:02;102496.16;;;-3.15;32.65
69737;BME280;64476;55.004;73.342;2023-03-20T06:41:57;102473.69;;;-3.04;32.11
69737;BME280;64476;55.004;73.342;2023-03-20T06:45:41;102455.94;;;-3.21;31.64
69737;BME280;64476;55.004;73.342;2023-03-20T07:03:10;102459.44;;;-2.75;31.32
69737;BME280;64476;55.004;73.342;2023-03-20T07:06:21;102435.81;;;-2.97;32.26
69737;BME280;64476;55.004;73.342;2023-03-20T07:09:25;102435.00;;;-2.99;31.94
69737;BME280;64476;55.004;73.342;2023-03-20T07:12:36;102393.06;;;-3.05;31.53
69737;BME280;64476;55.004;73.342;2023-03-20T07:16:21;102468.94;;;-2.79;31.20
69737;BME280;64476;55.004;73.342;2023-03-20T07:23:38;102463.13;;;-2.90;32.60
69737;BME280;64476;55.004;73.342;2023-03-20T07:26:39;102440.63;;;-2.79;32.04
69737;BME280;64476;55.004;73.342;2023-03-20T07:29:44;102418.22;;;-2.72;32.02
69737;BME280;64476;55.004;73.342;2023-03-20T07:32:50;102455.91;;;-2.25;31.85
69737;BME280;64476;55.004;73.342;2023-03-20T07:40:23;102412.78;;;-2.15;31.29
69737;BME280;64476;55.004;73.342;2023-03-20T07:43:28;102392.00;;;-2.08;31.29
69737;BME280;64476;55.004;73.342;2023-03-20T07:46:49;102453.03;;;-1.71;30.26
69737;BME280;64476;55.004;73.342;2023-03-20T07:58:28;102410.78;;;-1.65;30.06
69737;BME280;64476;55.004;73.342;2023-03-20T08:01:33;102355.34;;;-1.82;29.40
69737;BME280;64476;55.004;73.342;2023-03-20T08:08:56;102318.88;;;-2.02;29.29
69737;BME280;64476;55.004;73.342;2023-03-20T08:12:00;102378.34;;;-1.74;28.79
69737;BME280;64476;55.004;73.342;2023-03-20T08:15:05;102415.50;;;-1.45;28.62
69737;BME280;64476;55.004;73.342;2023-03-20T08:22:19;102327.94;;;-1.86;28.95
69737;BME280;64476;55.004;73.342;2023-03-20T08:25:22;102392.78;;;-1.31;28.59
69737;BME280;64476;55.004;73.342;2023-03-20T08:28:24;102391.63;;;-1.19;28.62
69737;BME280;64476;55.004;73.342;2023-03-20T08:31:26;102399.50;;;-1.24;28.41
69737;BME280;64476;55.004;73.342;2023-03-20T08:38:40;102354.97;;;-1.66;28.39
69737;BME280;64476;55.004;73.342;2023-03-20T08:41:42;102374.81;;;-1.70;26.98
69737;BME280;64476;55.004;73.342;2023-03-20T08:44:47;102339.25;;;-1.91;27.31
69737;BME280;64476;55.004;73.342;2023-03-20T08:55:53;102319.75;;;-2.42;27.65
69737;BME280;64476;55.004;73.342;2023-03-20T08:58:55;102325.41;;;-2.24;27.77
69737;BME280;64476;55.004;73.342;2023-03-20T09:02:01;102304.31;;;-2.40;27.38
69737;BME280;64476;55.004;73.342;2023-03-20T09:05:07;102322.69;;;-2.18;27.80
69737;BME280;64476;55.004;73.342;2023-03-20T09:08:09;102329.34;;;-2.10;27.79
69737;BME280;64476;55.004;73.342;2023-03-20T09:15:45;102280.31;;;-2.42;28.48
69737;BME280;64476;55.004;73.342;2023-03-20T09:18:47;102333.50;;;-2.02;28.70
69737;BME280;64476;55.004;73.342;2023-03-20T09:21:48;102192.22;;;-2.94;28.29
69737;BME280;64476;55.004;73.342;2023-03-20T09:24:50;102279.41;;;-2.40;27.95
69737;BME280;64476;55.004;73.342;2023-03-20T09:27:53;102220.47;;;-2.91;27.77
69737;BME280;64476;55.004;73.342;2023-03-20T09:31:12;102286.03;;;-2.29;27.88
69737;BME280;64476;55.004;73.342;2023-03-20T09:34:14;102304.75;;;-2.21;27.10
69737;BME280;64476;55.004;73.342;2023-03-20T09:37:19;102268.97;;;-2.34;27.26
69737;BME280;64476;55.004;73.342;2023-03-20T09:40:29;102300.38;;;-2.18;26.31
69737;BME280;64476;55.004;73.342;2023-03-20T10:02:15;102267.81;;;-2.59;27.34
69737;BME280;64476;55.004;73.342;2023-03-20T10:05:27;102262.44;;;-2.48;27.09
69737;BME280;64476;55.004;73.342;2023-03-20T10:24:53;102256.25;;;-2.78;28.07
69737;BME280;64476;55.004;73.342;2023-03-20T10:32:35;102268.91;;;-3.11;28.18
69737;BME280;64476;55.004;73.342;2023-03-20T10:35:57;102253.59;;;-3.17;28.54
69737;BME280;64476;55.004;73.342;2023-03-20T10:43:31;102178.28;;;-3.67;28.48
69737;BME280;64476;55.004;73.342;2023-03-20T10:46:41;102149.09;;;-4.10;28.49
69737;BME280;64476;55.004;73.342;2023-03-20T10:58:17;102192.72;;;-4.07;29.65
69737;BME280;64476;55.004;73.342;2023-03-20T11:05:37;102230.44;;;-4.10;30.10
69737;BME280;64476;55.004;73.342;2023-03-20T11:12:51;102207.13;;;-4.54;30.10
69737;BME280;64476;55.004;73.342;2023-03-20T11:20:06;102177.31;;;-4.61;30.36
69737;BME280;64476;55.004;73.342;2023-03-20T11:23:18;102215.66;;;-4.52;30.32
69737;BME280;64476;55.004;73.342;2023-03-20T11:26:40;102146.19;;;-4.97;30.40
69737;BME280;64476;55.004;73.342;2023-03-20T11:30:16;102162.41;;;-4.96;30.87
69737;BME280;64476;55.004;73.342;2023-03-20T11:33:18;102196.53;;;-4.88;30.61
69737;BME280;64476;55.004;73.342;2023-03-20T11:36:29;102200.78;;;-4.87;30.68
69737;BME280;64476;55.004;73.342;2023-03-20T11:39:32;102128.97;;;-5.50;31.07
69737;BME280;64476;55.004;73.342;2023-03-20T11:43:25;102133.38;;;-5.61;30.89
69737;BME280;64476;55.004;73.342;2023-03-20T11:54:57;102148.53;;;-5.43;31.13
69737;BME280;64476;55.004;73.342;2023-03-20T11:58:01;102177.47;;;-5.36;31.11
69737;BME280;64476;55.004;73.342;2023-03-20T12:01:06;102163.94;;;-5.48;31.52
69737;BME280;64476;55.004;73.342;2023-03-20T12:04:20;102165.78;;;-5.60;31.27
69737;BME280;64476;55.004;73.342;2023-03-20T12:10:33;102164.88;;;-5.53;31.33
69737;BME280;64476;55.004;73.342;2023-03-20T12:13:43;102113.06;;;-5.78;31.59
69737;BME280;64476;55.004;73.342;2023-03-20T12:16:51;102134.22;;;-5.62;31.86
69737;BME280;64476;55.004;73.342;2023-03-20T12:20:00;102040.84;;;-6.06;32.44
69737;BME280;64476;55.004;73.342;2023-03-20T12:26:25;102103.50;;;-5.64;33.17
69737;BME280;64476;55.004;73.342;2023-03-20T12:30:15;102153.53;;;-5.34;33.65
69737;BME280;64476;55.004;73.342;2023-03-20T12:36:49;102139.19;;;-5.47;33.25
69737;BME280;64476;55.004;73.342;2023-03-20T12:39:55;102112.06;;;-5.66;33.60
69737;BME280;64476;55.004;73.342;2023-03-20T12:43:03;102130.69;;;-5.52;33.94
69737;BME280;64476;55.004;73.342;2023-03-20T13:06:13;102140.59;;;-5.99;33.90
69737;BME280;64476;55.004;73.342;2023-03-20T13:23:14;102116.28;;;-6.43;35.89
69737;BME280;64476;55.004;73.342;2023-03-20T13:26:43;102130.75;;;-6.43;36.99
69737;BME280;64476;55.004;73.342;2023-03-20T13:40:36;102039.34;;;-7.23;38.36
69737;BME280;64476;55.004;73.342;2023-03-20T13:47:09;102065.56;;;-6.96;38.39
69737;BME280;64476;55.004;73.342;2023-03-20T14:01:04;102111.19;;;-6.47;38.85
69737;BME280;64476;55.004;73.342;2023-03-20T14:04:13;102118.00;;;-6.46;39.43
69737;BME280;64476;55.004;73.342;2023-03-20T14:14:25;102101.84;;;-6.54;39.64
69737;BME280;64476;55.004;73.342;2023-03-20T14:17:30;102089.97;;;-6.58;39.37
69737;BME280;64476;55.004;73.342;2023-03-20T14:20:36;102097.78;;;-6.72;39.76
69737;BME280;64476;55.004;73.342;2023-03-20T14:23:49;102088.38;;;-6.72;39.94
69737;BME280;64476;55.004;73.342;2023-03-20T14:29:56;101995.25;;;-7.52;40.60
69737;BME280;64476;55.004;73.342;2023-03-20T14:36:26;102032.72;;;-7.57;42.90
69737;BME280;64476;55.004;73.342;2023-03-20T14:49:49;102094.03;;;-7.65;45.12
69737;BME280;64476;55.004;73.342;2023-03-20T14:56:55;102080.47;;;-7.81;45.45
69737;BME280;64476;55.004;73.342;2023-03-20T15:00:23;102088.97;;;-7.76;46.35
69737;BME280;64476;55.004;73.342;2023-03-20T15:03:31;102061.78;;;-7.86;45.69
69737;BME280;64476;55.004;73.342;2023-03-20T15:06:34;102076.22;;;-7.80;46.18
69737;BME280;64476;55.004;73.342;2023-03-20T15:09:46;102021.88;;;-8.07;46.23
69737;BME280;64476;55.004;73.342;2023-03-20T15:12:48;102073.66;;;-7.74;46.24
69737;BME280;64476;55.004;73.342;2023-03-20T15:15:58;102076.19;;;-7.70;46.55
69737;BME280;64476;55.004;73.342;2023-03-20T15:19:12;101999.78;;;-8.13;46.80
69737;BME280;64476;55.004;73.342;2023-03-20T15:22:19;102056.63;;;-7.77;46.11
69737;BME280;64476;55.004;73.342;2023-03-20T15:32:52;102029.44;;;-7.84;46.49
69737;BME280;64476;55.004;73.342;2023-03-20T15:36:32;101955.59;;;-8.15;46.11
69737;BME280;64476;55.004;73.342;2023-03-20T15:40:20;102037.81;;;-7.53;46.64
69737;BME280;64476;55.004;73.342;2023-03-20T15:43:28;102032.66;;;-7.47;45.80
69737;BME280;64476;55.004;73.342;2023-03-20T15:46:30;102024.09;;;-7.40;45.83
69737;BME280;64476;55.004;73.342;2023-03-20T15:49:31;102001.19;;;-7.47;45.99
69737;BME280;64476;55.004;73.342;2023-03-20T15:52:45;102035.91;;;-7.19;45.56
69737;BME280;64476;55.004;73.342;2023-03-20T15:56:25;102011.16;;;-7.13;45.11
69737;BME280;64476;55.004;73.342;2023-03-20T15:59:30;101959.41;;;-7.40;45.20
69737;BME280;64476;55.004;73.342;2023-03-20T16:02:35;101902.56;;;-7.65;44.82
69737;BME280;64476;55.004;73.342;2023-03-20T16:05:42;102013.56;;;-6.95;44.76
69737;BME280;64476;55.004;73.342;2023-03-20T16:09:00;101968.63;;;-7.21;44.48
69737;BME280;64476;55.004;73.342;2023-03-20T16:12:02;101973.78;;;-7.22;44.61
69737;BME280;64476;55.004;73.342;2023-03-20T16:15:43;101966.06;;;-7.18;44.00
69737;BME280;64476;55.004;73.342;2023-03-20T16:19:17;101978.78;;;-7.08;43.85
69737;BME280;64476;55.004;73.342;2023-03-20T16:22:31;101957.69;;;-7.33;43.95
69737;BME280;64476;55.004;73.342;2023-03-20T16:25:36;101985.72;;;-7.26;43.76
69737;BME280;64476;55.004;73.342;2023-03-20T16:28:38;101991.66;;;-7.24;43.84
69737;BME280;64476;55.004;73.342;2023-03-20T16:35:29;101993.50;;;-7.47;44.00
69737;BME280;64476;55.004;73.342;2023-03-20T16:38:36;101932.50;;;-7.89;44.33
69737;BME280;64476;55.004;73.342;2023-03-20T16:41:39;101941.88;;;-7.89;44.01
69737;BME280;64476;55.004;73.342;2023-03-20T16:44:53;101930.03;;;-8.04;43.83
69737;BME280;64476;55.004;73.342;2023-03-20T16:51:20;101922.38;;;-8.05;43.46
69737;BME280;64476;55.004;73.342;2023-03-20T16:54:27;101956.31;;;-7.91;44.22
69737;BME280;64476;55.004;73.342;2023-03-20T16:57:34;101910.56;;;-8.20;44.11
69737;BME280;64476;55.004;73.342;2023-03-20T17:00:51;101956.34;;;-7.93;43.88
69737;BME280;64476;55.004;73.342;2023-03-20T17:04:33;101885.19;;;-8.45;43.63
69737;BME280;64476;55.004;73.342;2023-03-20T17:08:24;101890.28;;;-8.49;43.99
69737;BME280;64476;55.004;73.342;2023-03-20T17:11:40;101882.72;;;-8.74;44.17
69737;BME280;64476;55.004;73.342;2023-03-20T17:14:48;101804.72;;;-9.19;43.79
69737;BME280;64476;55.004;73.342;2023-03-20T17:17:50;101887.78;;;-8.65;43.91
69737;BME280;64476;55.004;73.342;2023-03-20T17:20:57;101937.81;;;-8.34;43.58
69737;BME280;64476;55.004;73.342;2023-03-20T17:24:11;101880.13;;;-8.68;43.44
69737;BME280;64476;55.004;73.342;2023-03-20T17:27:19;101932.75;;;-8.44;43.83
69737;BME280;64476;55.004;73.342;2023-03-20T17:33:37;101920.88;;;-8.48;43.31
69737;BME280;64476;55.004;73.342;2023-03-20T17:36:39;101922.56;;;-8.45;43.66
69737;BME280;64476;55.004;73.342;2023-03-20T17:39:41;101859.00;;;-8.88;43.24
69737;BME280;64476;55.004;73.342;2023-03-20T17:42:51;101818.31;;;-9.22;43.50
69737;BME280;64476;55.004;73.342;2023-03-20T17:45:54;101815.75;;;-9.13;43.23
69737;BME280;64476;55.004;73.342;2023-03-20T17:49:14;101939.53;;;-8.40;43.33
69737;BME280;64476;55.004;73.342;2023-03-20T17:52:20;101874.22;;;-8.67;42.95
69737;BME280;64476;55.004;73.342;2023-03-20T17:55:53;101916.59;;;-8.38;42.88
69737;BME280;64476;55.004;73.342;2023-03-20T17:58:56;101914.91;;;-8.38;42.87
69737;BME280;64476;55.004;73.342;2023-03-20T18:02:05;101828.41;;;-8.85;42.72
69737;BME280;64476;55.004;73.342;2023-03-20T18:05:07;101869.09;;;-8.56;42.22
69737;BME280;64476;55.004;73.342;2023-03-20T18:08:18;101860.59;;;-8.59;42.16
69737;BME280;64476;55.004;73.342;2023-03-20T18:11:27;101856.31;;;-8.57;42.00
69737;BME280;64476;55.004;73.342;2023-03-20T18:14:29;101835.94;;;-8.57;42.59
69737;BME280;64476;55.004;73.342;2023-03-20T18:17:31;101861.41;;;-8.53;42.42
69737;BME280;64476;55.004;73.342;2023-03-20T18:20:35;101841.06;;;-8.62;41.89
69737;BME280;64476;55.004;73.342;2023-03-20T18:23:37;101868.22;;;-8.55;42.08
69737;BME280;64476;55.004;73.342;2023-03-20T18:26:44;101888.56;;;-8.46;42.29
69737;BME280;64476;55.004;73.342;2023-03-20T18:29:46;101892.81;;;-8.49;41.89
69737;BME280;64476;55.004;73.342;2023-03-20T18:32:48;101873.34;;;-8.63;42.04
69737;BME280;64476;55.004;73.342;2023-03-20T18:35:53;101845.38;;;-8.81;41.66
69737;BME280;64476;55.004;73.342;2023-03-20T18:38:55;101808.06;;;-8.96;41.64
69737;BME280;64476;55.004;73.342;2023-03-20T18:42:02;101882.63;;;-8.49;41.74
69737;BME280;64476;55.004;73.342;2023-03-20T18:45:05;101873.41;;;-8.75;42.23
69737;BME280;64476;55.004;73.342;2023-03-20T18:48:10;101867.47;;;-8.78;41.67
69737;BME280;64476;55.004;73.342;2023-03-20T18:51:13;101892.88;;;-8.63;41.65
69737;BME280;64476;55.004;73.342;2023-03-20T18:54:16;101875.94;;;-8.75;41.74
69737;BME280;64476;55.004;73.342;2023-03-20T18:57:25;101824.19;;;-8.98;41.99
69737;BME280;64476;55.004;73.342;2023-03-20T19:00:36;101877.63;;;-8.69;41.81
69737;BME280;64476;55.004;73.342;2023-03-20T19:03:45;101793.72;;;-9.18;42.18
69737;BME280;64476;55.004;73.342;2023-03-20T19:06:51;101853.00;;;-8.79;42.00
69737;BME280;64476;55.004;73.342;2023-03-20T19:09:53;101797.13;;;-9.22;42.17
69737;BME280;64476;55.004;73.342;2023-03-20T19:12:55;101790.28;;;-9.16;41.93
69737;BME280;64476;55.004;73.342;2023-03-20T19:16:01;101864.88;;;-8.71;42.06
69737;BME280;64476;55.004;73.342;2023-03-20T19:19:04;101839.41;;;-8.80;41.88
69737;BME280;64476;55.004;73.342;2023-03-20T19:22:06;101836.03;;;-8.77;41.94
69737;BME280;64476;55.004;73.342;2023-03-20T19:25:08;101836.88;;;-8.74;41.63
69737;BME280;64476;55.004;73.342;2023-03-20T19:31:48;101797.84;;;-8.94;41.85
69737;BME280;64476;55.004;73.342;2023-03-20T19:34:50;101849.53;;;-8.57;41.54
69737;BME280;64476;55.004;73.342;2023-03-20T19:37:51;101789.34;;;-8.87;41.42
69737;BME280;64476;55.004;73.342;2023-03-20T19:40:53;101853.78;;;-8.56;41.03
69737;BME280;64476;55.004;73.342;2023-03-20T19:43:56;101791.91;;;-8.92;41.62
69737;BME280;64476;55.004;73.342;2023-03-20T19:50:52;101848.69;;;-8.56;40.91
69737;BME280;64476;55.004;73.342;2023-03-20T19:53:54;101838.47;;;-8.54;41.12
69737;BME280;64476;55.004;73.342;2023-03-20T19:56:56;101835.94;;;-8.57;41.23
69737;BME280;64476;55.004;73.342;2023-03-20T19:59:57;101830.88;;;-8.62;40.92
69737;BME280;64476;55.004;73.342;2023-03-20T20:03:03;101813.06;;;-8.70;41.34
69737;BME280;64476;55.004;73.342;2023-03-20T20:06:05;101803.75;;;-8.77;41.21
69737;BME280;64476;55.004;73.342;2023-03-20T20:09:07;101830.88;;;-8.68;40.64
69737;BME280;64476;55.004;73.342;2023-03-20T20:12:18;101833.47;;;-8.71;41.13
69737;BME280;64476;55.004;73.342;2023-03-20T20:15:29;101682.66;;;-9.61;41.14
69737;BME280;64476;55.004;73.342;2023-03-20T20:18:34;101809.69;;;-8.79;41.37
69737;BME280;64476;55.004;73.342;2023-03-20T20:21:37;101711.44;;;-9.37;41.08
69737;BME280;64476;55.004;73.342;2023-03-20T20:24:38;101797.81;;;-8.74;40.83
69737;BME280;64476;55.004;73.342;2023-03-20T20:27:51;101799.50;;;-8.76;40.87
69737;BME280;64476;55.004;73.342;2023-03-20T20:34:32;101769.00;;;-8.93;41.09
69737;BME280;64476;55.004;73.342;2023-03-20T20:37:35;101798.63;;;-8.69;40.95
69737;BME280;64476;55.004;73.342;2023-03-20T20:40:42;101745.25;;;-8.97;41.11
69737;BME280;64476;55.004;73.342;2023-03-20T20:43:46;101757.06;;;-8.83;40.81
69737;BME280;64476;55.004;73.342;2023-03-20T20:46:48;101776.47;;;-8.61;40.88
69737;BME280;64476;55.004;73.342;2023-03-20T20:49:50;101790.84;;;-8.49;40.54
69737;BME280;64476;55.004;73.342;2023-03-20T20:52:53;101796.78;;;-8.46;40.78
69737;BME280;64476;55.004;73.342;2023-03-20T20:56:00;101786.59;;;-8.41;40.64
69737;BME280;64476;55.004;73.342;2023-03-20T20:59:02;101778.13;;;-8.51;40.70
69737;BME280;64476;55.004;73.342;2023-03-20T21:02:04;101778.09;;;-8.45;40.70
69737;BME280;64476;55.004;73.342;2023-03-20T21:05:14;101745.06;;;-8.65;40.45
69737;BME280;64476;55.004;73.342;2023-03-20T21:08:17;101746.78;;;-8.64;40.30
69737;BME280;64476;55.004;73.342;2023-03-20T21:11:19;101723.91;;;-8.76;40.35
69737;BME280;64476;55.004;73.342;2023-03-20T21:14:22;101726.47;;;-8.79;40.58
69737;BME280;64476;55.004;73.342;2023-03-20T21:17:26;101782.38;;;-8.45;40.39
69737;BME280;64476;55.004;73.342;2023-03-20T21:20:34;101768.84;;;-8.59;40.51
69737;BME280;64476;55.004;73.342;2023-03-20T21:23:43;101779.03;;;-8.56;40.41
69737;BME280;64476;55.004;73.342;2023-03-20T21:26:46;101772.28;;;-8.73;40.64
69737;BME280;64476;55.004;73.342;2023-03-20T21:29:53;101704.56;;;-9.17;40.47
69737;BME280;64476;55.004;73.342;2023-03-20T21:33:33;101714.78;;;-9.18;40.80
69737;BME280;64476;55.004;73.342;2023-03-20T21:37:21;101714.78;;;-9.18;40.83
69737;BME280;64476;55.004;73.342;2023-03-20T21:40:33;101714.75;;;-9.11;40.46
69737;BME280;64476;55.004;73.342;2023-03-20T21:43:40;101751.97;;;-8.80;40.05
69737;BME280;64476;55.004;73.342;2023-03-20T21:46:55;101686.75;;;-9.18;40.23
69737;BME280;64476;55.004;73.342;2023-03-20T21:53:31;101702.94;;;-9.36;40.16
69737;BME280;64476;55.004;73.342;2023-03-20T21:56:38;101761.41;;;-9.05;39.92
69737;BME280;64476;55.004;73.342;2023-03-20T21:59:45;101703.81;;;-9.37;39.90
69737;BME280;64476;55.004;73.342;2023-03-20T22:02:56;101750.31;;;-8.94;40.20
69737;BME280;64476;55.004;73.342;2023-03-20T22:06:10;101748.56;;;-8.82;40.26
69737;BME280;64476;55.004;73.342;2023-03-20T22:10:02;101743.50;;;-8.87;39.78
69737;BME280;64476;55.004;73.342;2023-03-20T22:13:04;101757.91;;;-8.78;39.91
69737;BME280;64476;55.004;73.342;2023-03-20T22:16:08;101712.16;;;-9.09;39.70
69737;BME280;64476;55.004;73.342;2023-03-20T22:19:18;101707.91;;;-8.99;39.51
69737;BME280;64476;55.004;73.342;2023-03-20T22:22:30;101744.31;;;-8.87;39.78
69737;BME280;64476;55.004;73.342;2023-03-20T22:25:36;101705.47;;;-9.28;39.31
69737;BME280;64476;55.004;73.342;2023-03-20T22:28:38;101722.44;;;-9.30;39.66
69737;BME280;64476;55.004;73.342;2023-03-20T22:31:53;101717.41;;;-9.41;39.71
69737;BME280;64476;55.004;73.342;2023-03-20T22:34:58;101710.63;;;-9.53;39.50
69737;BME280;64476;55.004;73.342;2023-03-20T22:38:02;101703.03;;;-9.65;39.85
69737;BME280;64476;55.004;73.342;2023-03-20T22:41:06;101667.47;;;-9.85;39.25
69737;BME280;64476;55.004;73.342;2023-03-20T22:44:12;101701.31;;;-9.65;39.62
69737;BME280;64476;55.004;73.342;2023-03-20T22:48:23;101726.75;;;-9.51;39.22
69737;BME280;64476;55.004;73.342;2023-03-20T22:51:29;101648.00;;;-9.98;39.16
69737;BME280;64476;55.004;73.342;2023-03-20T22:54:38;101713.19;;;-9.61;39.33
69737;BME280;64476;55.004;73.342;2023-03-20T22:58:13;101719.13;;;-9.57;39.75
69737;BME280;64476;55.004;73.342;2023-03-20T23:01:18;101652.22;;;-9.88;39.34
69737;BME280;64476;55.004;73.342;2023-03-20T23:04:22;101700.47;;;-9.57;39.66
69737;BME280;64476;55.004;73.342;2023-03-20T23:07:24;101727.59;;;-9.44;39.46
69737;BME280;64476;55.004;73.342;2023-03-20T23:10:29;101699.63;;;-9.66;39.81
69737;BME280;64476;55.004;73.342;2023-03-20T23:14:05;101738.59;;;-9.41;39.83
69737;BME280;64476;55.004;73.342;2023-03-20T23:17:06;101693.69;;;-9.65;40.25
69737;BME280;64476;55.004;73.342;2023-03-20T23:20:09;101725.91;;;-9.51;40.33
69737;BME280;64476;55.004;73.342;2023-03-20T23:23:16;101711.50;;;-9.62;40.33
69737;BME280;64476;55.004;73.342;2023-03-20T23:26:23;101678.47;;;-9.85;40.00
69737;BME280;64476;55.004;73.342;2023-03-20T23:29:34;101721.66;;;-9.54;40.28